Amarillo (AMA/KAMA)

Map

Destinations

Information

Location
Amarillo, TX
Local Time
20:48 / 8:48 pm
GMT Time
01:48 / 1:48 am
Gates
A2
No FAA reported delays
METAR KAMA 270053Z 15010KT 10SM CLR 27/13 A3011 RMK AO2 SLP152 T02670133
TAF KAMA 262320Z 2700/2724 16015KT P6SM SCT060 FM270100 16008KT P6SM VCSH BKN250 TEMPO 2705/2708 5SM -TSRA BKN030CB FM270800 20010KT P6SM SCT250 FM271700 20012G22KT P6SM SKC